sensor_id;sensor_type;location;lat;lon;timestamp;P1;durP1;ratioP1;P2;durP2;ratioP2
48526;SDS011;34317;51.660;5.824;2022-10-28T00:01:08;18.42;;;7.90;;
48526;SDS011;34317;51.660;5.824;2022-10-28T00:03:38;13.07;;;8.05;;
48526;SDS011;34317;51.660;5.824;2022-10-28T00:06:13;12.75;;;7.95;;
48526;SDS011;34317;51.660;5.824;2022-10-28T00:08:42;18.50;;;7.90;;
48526;SDS011;34317;51.660;5.824;2022-10-28T00:11:10;15.15;;;7.80;;
48526;SDS011;34317;51.660;5.824;2022-10-28T00:13:39;18.23;;;8.40;;
48526;SDS011;34317;51.660;5.824;2022-10-28T00:16:11;18.38;;;8.40;;
48526;SDS011;34317;51.660;5.824;2022-10-28T00:18:40;17.23;;;8.07;;
48526;SDS011;34317;51.660;5.824;2022-10-28T00:21:09;20.88;;;8.57;;
48526;SDS011;34317;51.660;5.824;2022-10-28T00:23:40;16.23;;;8.40;;
48526;SDS011;34317;51.660;5.824;2022-10-28T00:26:09;14.88;;;9.00;;
48526;SDS011;34317;51.660;5.824;2022-10-28T00:28:41;14.15;;;9.15;;
48526;SDS011;34317;51.660;5.824;2022-10-28T00:31:11;17.10;;;9.10;;
48526;SDS011;34317;51.660;5.824;2022-10-28T00:33:40;17.00;;;8.68;;
48526;SDS011;34317;51.660;5.824;2022-10-28T00:36:17;18.45;;;8.98;;
48526;SDS011;34317;51.660;5.824;2022-10-28T00:38:47;17.27;;;9.07;;
48526;SDS011;34317;51.660;5.824;2022-10-28T00:41:17;13.80;;;8.20;;
48526;SDS011;34317;51.660;5.824;2022-10-28T00:43:48;17.10;;;9.00;;
48526;SDS011;34317;51.660;5.824;2022-10-28T00:48:51;20.08;;;9.48;;
48526;SDS011;34317;51.660;5.824;2022-10-28T00:51:32;18.98;;;9.07;;
48526;SDS011;34317;51.660;5.824;2022-10-28T00:54:01;17.05;;;8.75;;
48526;SDS011;34317;51.660;5.824;2022-10-28T00:56:31;19.80;;;9.05;;
48526;SDS011;34317;51.660;5.824;2022-10-28T00:59:10;15.45;;;9.18;;
48526;SDS011;34317;51.660;5.824;2022-10-28T01:01:42;14.65;;;9.10;;
48526;SDS011;34317;51.660;5.824;2022-10-28T01:04:09;19.65;;;9.25;;
48526;SDS011;34317;51.660;5.824;2022-10-28T01:06:37;16.02;;;9.15;;
48526;SDS011;34317;51.660;5.824;2022-10-28T01:09:05;17.05;;;9.57;;
48526;SDS011;34317;51.660;5.824;2022-10-28T01:11:44;16.48;;;8.70;;
48526;SDS011;34317;51.660;5.824;2022-10-28T01:17:29;13.27;;;8.73;;
48526;SDS011;34317;51.660;5.824;2022-10-28T01:23:01;14.68;;;9.07;;
48526;SDS011;34317;51.660;5.824;2022-10-28T01:25:44;15.80;;;9.63;;
48526;SDS011;34317;51.660;5.824;2022-10-28T01:28:40;15.15;;;9.38;;
48526;SDS011;34317;51.660;5.824;2022-10-28T01:34:30;14.75;;;9.55;;
48526;SDS011;34317;51.660;5.824;2022-10-28T01:37:19;17.55;;;9.82;;
48526;SDS011;34317;51.660;5.824;2022-10-28T01:45:25;17.55;;;9.30;;
48526;SDS011;34317;51.660;5.824;2022-10-28T01:48:00;16.85;;;9.50;;
48526;SDS011;34317;51.660;5.824;2022-10-28T01:50:30;15.80;;;8.95;;
48526;SDS011;34317;51.660;5.824;2022-10-28T01:53:08;15.25;;;8.70;;
48526;SDS011;34317;51.660;5.824;2022-10-28T01:55:42;17.90;;;9.25;;
48526;SDS011;34317;51.660;5.824;2022-10-28T01:58:16;17.90;;;10.20;;
48526;SDS011;34317;51.660;5.824;2022-10-28T02:00:47;16.48;;;9.52;;
48526;SDS011;34317;51.660;5.824;2022-10-28T02:03:15;21.23;;;10.00;;
48526;SDS011;34317;51.660;5.824;2022-10-28T02:10:59;13.02;;;8.98;;
48526;SDS011;34317;51.660;5.824;2022-10-28T02:13:51;15.13;;;9.40;;
48526;SDS011;34317;51.660;5.824;2022-10-28T02:16:32;16.40;;;8.60;;
48526;SDS011;34317;51.660;5.824;2022-10-28T02:22:02;14.23;;;8.55;;
48526;SDS011;34317;51.660;5.824;2022-10-28T02:27:09;12.38;;;8.55;;
48526;SDS011;34317;51.660;5.824;2022-10-28T02:30:04;13.52;;;8.48;;
48526;SDS011;34317;51.660;5.824;2022-10-28T02:32:39;13.20;;;8.85;;
48526;SDS011;34317;51.660;5.824;2022-10-28T02:35:12;17.92;;;8.90;;
48526;SDS011;34317;51.660;5.824;2022-10-28T02:37:46;15.35;;;9.15;;
48526;SDS011;34317;51.660;5.824;2022-10-28T02:40:18;16.50;;;8.82;;
48526;SDS011;34317;51.660;5.824;2022-10-28T02:42:49;14.25;;;8.85;;
48526;SDS011;34317;51.660;5.824;2022-10-28T02:45:22;17.80;;;8.10;;
48526;SDS011;34317;51.660;5.824;2022-10-28T02:47:54;17.83;;;8.50;;
48526;SDS011;34317;51.660;5.824;2022-10-28T02:50:25;15.48;;;8.38;;
48526;SDS011;34317;51.660;5.824;2022-10-28T02:52:58;17.67;;;8.77;;
48526;SDS011;34317;51.660;5.824;2022-10-28T02:55:30;16.33;;;8.45;;
48526;SDS011;34317;51.660;5.824;2022-10-28T02:58:01;21.30;;;9.00;;
48526;SDS011;34317;51.660;5.824;2022-10-28T03:00:28;15.88;;;8.63;;
48526;SDS011;34317;51.660;5.824;2022-10-28T03:02:55;13.70;;;8.75;;
48526;SDS011;34317;51.660;5.824;2022-10-28T03:05:22;14.30;;;8.45;;
48526;SDS011;34317;51.660;5.824;2022-10-28T03:07:49;14.35;;;8.32;;
48526;SDS011;34317;51.660;5.824;2022-10-28T03:10:17;17.20;;;8.98;;
48526;SDS011;34317;51.660;5.824;2022-10-28T03:12:44;14.75;;;8.30;;
48526;SDS011;34317;51.660;5.824;2022-10-28T03:15:11;14.73;;;8.27;;
48526;SDS011;34317;51.660;5.824;2022-10-28T03:17:38;15.82;;;8.00;;
48526;SDS011;34317;51.660;5.824;2022-10-28T03:20:06;16.20;;;8.20;;
48526;SDS011;34317;51.660;5.824;2022-10-28T03:22:33;16.60;;;7.85;;
48526;SDS011;34317;51.660;5.824;2022-10-28T03:25:00;19.23;;;8.60;;
48526;SDS011;34317;51.660;5.824;2022-10-28T03:27:27;16.90;;;8.30;;
48526;SDS011;34317;51.660;5.824;2022-10-28T03:29:54;13.85;;;7.63;;
48526;SDS011;34317;51.660;5.824;2022-10-28T03:32:21;12.80;;;7.70;;
48526;SDS011;34317;51.660;5.824;2022-10-28T03:34:53;13.95;;;8.20;;
48526;SDS011;34317;51.660;5.824;2022-10-28T03:37:20;16.52;;;7.85;;
48526;SDS011;34317;51.660;5.824;2022-10-28T03:39:47;15.02;;;8.52;;
48526;SDS011;34317;51.660;5.824;2022-10-28T03:42:14;18.83;;;8.05;;
48526;SDS011;34317;51.660;5.824;2022-10-28T03:44:41;18.10;;;8.40;;
48526;SDS011;34317;51.660;5.824;2022-10-28T03:47:08;16.15;;;8.30;;
48526;SDS011;34317;51.660;5.824;2022-10-28T03:49:36;15.20;;;8.18;;
48526;SDS011;34317;51.660;5.824;2022-10-28T03:52:03;14.23;;;8.18;;
48526;SDS011;34317;51.660;5.824;2022-10-28T03:54:30;15.52;;;7.43;;
48526;SDS011;34317;51.660;5.824;2022-10-28T03:56:57;18.00;;;8.90;;
48526;SDS011;34317;51.660;5.824;2022-10-28T03:59:24;20.98;;;8.13;;
48526;SDS011;34317;51.660;5.824;2022-10-28T04:01:51;16.65;;;8.35;;
48526;SDS011;34317;51.660;5.824;2022-10-28T04:04:18;14.52;;;7.93;;
48526;SDS011;34317;51.660;5.824;2022-10-28T04:06:45;15.40;;;8.00;;
48526;SDS011;34317;51.660;5.824;2022-10-28T04:09:12;13.38;;;8.02;;
48526;SDS011;34317;51.660;5.824;2022-10-28T04:11:39;14.43;;;7.80;;
48526;SDS011;34317;51.660;5.824;2022-10-28T04:14:06;16.02;;;8.75;;
48526;SDS011;34317;51.660;5.824;2022-10-28T04:16:33;17.60;;;9.02;;
48526;SDS011;34317;51.660;5.824;2022-10-28T04:19:00;20.92;;;8.68;;
48526;SDS011;34317;51.660;5.824;2022-10-28T04:21:27;16.45;;;7.97;;
48526;SDS011;34317;51.660;5.824;2022-10-28T04:23:54;12.20;;;7.72;;
48526;SDS011;34317;51.660;5.824;2022-10-28T04:26:21;17.65;;;7.85;;
48526;SDS011;34317;51.660;5.824;2022-10-28T04:28:48;18.15;;;7.70;;
48526;SDS011;34317;51.660;5.824;2022-10-28T04:31:15;12.95;;;8.10;;
48526;SDS011;34317;51.660;5.824;2022-10-28T04:33:42;14.57;;;8.38;;
48526;SDS011;34317;51.660;5.824;2022-10-28T04:36:09;17.70;;;7.65;;
48526;SDS011;34317;51.660;5.824;2022-10-28T04:38:36;16.23;;;7.65;;
48526;SDS011;34317;51.660;5.824;2022-10-28T04:41:03;16.52;;;7.82;;
48526;SDS011;34317;51.660;5.824;2022-10-28T04:43:30;14.35;;;7.97;;
48526;SDS011;34317;51.660;5.824;2022-10-28T04:45:57;14.52;;;7.38;;
48526;SDS011;34317;51.660;5.824;2022-10-28T04:48:28;18.65;;;7.63;;
48526;SDS011;34317;51.660;5.824;2022-10-28T04:50:55;17.27;;;7.50;;
48526;SDS011;34317;51.660;5.824;2022-10-28T04:53:22;20.15;;;7.22;;
48526;SDS011;34317;51.660;5.824;2022-10-28T04:55:50;13.48;;;6.85;;
48526;SDS011;34317;51.660;5.824;2022-10-28T04:58:17;16.38;;;6.93;;
48526;SDS011;34317;51.660;5.824;2022-10-28T05:00:44;15.82;;;7.07;;
48526;SDS011;34317;51.660;5.824;2022-10-28T05:03:11;16.77;;;7.28;;
48526;SDS011;34317;51.660;5.824;2022-10-28T05:05:38;15.65;;;7.07;;
48526;SDS011;34317;51.660;5.824;2022-10-28T05:08:06;17.33;;;7.07;;
48526;SDS011;34317;51.660;5.824;2022-10-28T05:10:33;16.33;;;6.45;;
48526;SDS011;34317;51.660;5.824;2022-10-28T05:13:00;16.23;;;6.45;;
48526;SDS011;34317;51.660;5.824;2022-10-28T05:15:27;17.83;;;7.10;;
48526;SDS011;34317;51.660;5.824;2022-10-28T05:17:56;13.38;;;6.78;;
48526;SDS011;34317;51.660;5.824;2022-10-28T05:20:23;13.45;;;6.85;;
48526;SDS011;34317;51.660;5.824;2022-10-28T05:22:51;14.45;;;7.00;;
48526;SDS011;34317;51.660;5.824;2022-10-28T05:25:21;12.00;;;6.80;;
48526;SDS011;34317;51.660;5.824;2022-10-28T05:27:48;20.88;;;6.70;;
48526;SDS011;34317;51.660;5.824;2022-10-28T05:30:15;16.38;;;7.18;;
48526;SDS011;34317;51.660;5.824;2022-10-28T05:32:43;17.40;;;7.55;;
48526;SDS011;34317;51.660;5.824;2022-10-28T05:35:10;16.95;;;7.35;;
48526;SDS011;34317;51.660;5.824;2022-10-28T05:37:37;19.02;;;6.95;;
48526;SDS011;34317;51.660;5.824;2022-10-28T05:40:04;12.48;;;6.60;;
48526;SDS011;34317;51.660;5.824;2022-10-28T05:42:32;17.55;;;6.90;;
48526;SDS011;34317;51.660;5.824;2022-10-28T05:44:59;16.98;;;6.90;;
48526;SDS011;34317;51.660;5.824;2022-10-28T05:47:26;15.45;;;7.18;;
48526;SDS011;34317;51.660;5.824;2022-10-28T05:49:53;14.55;;;7.40;;
48526;SDS011;34317;51.660;5.824;2022-10-28T05:52:20;15.45;;;7.75;;
48526;SDS011;34317;51.660;5.824;2022-10-28T05:54:47;17.42;;;7.30;;
48526;SDS011;34317;51.660;5.824;2022-10-28T05:57:14;13.25;;;7.35;;
48526;SDS011;34317;51.660;5.824;2022-10-28T05:59:40;11.80;;;6.75;;
48526;SDS011;34317;51.660;5.824;2022-10-28T06:02:11;14.32;;;7.20;;
48526;SDS011;34317;51.660;5.824;2022-10-28T06:04:40;14.55;;;6.95;;
48526;SDS011;34317;51.660;5.824;2022-10-28T06:07:07;15.18;;;7.22;;
48526;SDS011;34317;51.660;5.824;2022-10-28T06:09:35;16.52;;;7.20;;
48526;SDS011;34317;51.660;5.824;2022-10-28T06:12:02;18.60;;;7.00;;
48526;SDS011;34317;51.660;5.824;2022-10-28T06:14:30;17.10;;;6.82;;
48526;SDS011;34317;51.660;5.824;2022-10-28T06:16:58;13.75;;;6.72;;
48526;SDS011;34317;51.660;5.824;2022-10-28T06:19:25;14.15;;;6.88;;
48526;SDS011;34317;51.660;5.824;2022-10-28T06:21:52;15.13;;;7.15;;
48526;SDS011;34317;51.660;5.824;2022-10-28T06:24:19;21.45;;;7.82;;
48526;SDS011;34317;51.660;5.824;2022-10-28T06:26:46;15.85;;;7.47;;
48526;SDS011;34317;51.660;5.824;2022-10-28T06:29:14;17.25;;;6.82;;
48526;SDS011;34317;51.660;5.824;2022-10-28T06:31:41;17.52;;;6.43;;
48526;SDS011;34317;51.660;5.824;2022-10-28T06:34:09;21.63;;;6.78;;
48526;SDS011;34317;51.660;5.824;2022-10-28T06:36:36;20.38;;;7.10;;
48526;SDS011;34317;51.660;5.824;2022-10-28T06:39:04;18.35;;;6.63;;
48526;SDS011;34317;51.660;5.824;2022-10-28T06:41:31;14.05;;;6.55;;
48526;SDS011;34317;51.660;5.824;2022-10-28T06:43:59;15.35;;;7.15;;
48526;SDS011;34317;51.660;5.824;2022-10-28T06:46:26;15.07;;;6.68;;
48526;SDS011;34317;51.660;5.824;2022-10-28T06:48:53;20.50;;;6.85;;
48526;SDS011;34317;51.660;5.824;2022-10-28T06:51:21;15.32;;;7.30;;
48526;SDS011;34317;51.660;5.824;2022-10-28T06:53:49;13.65;;;7.13;;
48526;SDS011;34317;51.660;5.824;2022-10-28T06:56:17;17.98;;;6.75;;
48526;SDS011;34317;51.660;5.824;2022-10-28T06:58:48;16.77;;;7.38;;
48526;SDS011;34317;51.660;5.824;2022-10-28T07:01:19;16.47;;;6.60;;
48526;SDS011;34317;51.660;5.824;2022-10-28T07:03:47;20.88;;;6.97;;
48526;SDS011;34317;51.660;5.824;2022-10-28T07:06:15;17.25;;;7.25;;
48526;SDS011;34317;51.660;5.824;2022-10-28T07:08:42;15.45;;;6.38;;
48526;SDS011;34317;51.660;5.824;2022-10-28T07:11:09;14.07;;;6.95;;
48526;SDS011;34317;51.660;5.824;2022-10-28T07:13:37;24.65;;;6.85;;
48526;SDS011;34317;51.660;5.824;2022-10-28T07:16:04;15.52;;;6.90;;
48526;SDS011;34317;51.660;5.824;2022-10-28T07:18:31;21.13;;;6.90;;
48526;SDS011;34317;51.660;5.824;2022-10-28T07:20:58;18.00;;;6.65;;
48526;SDS011;34317;51.660;5.824;2022-10-28T07:23:27;16.38;;;6.50;;
48526;SDS011;34317;51.660;5.824;2022-10-28T07:25:54;17.45;;;6.50;;
48526;SDS011;34317;51.660;5.824;2022-10-28T07:28:22;18.48;;;6.38;;
48526;SDS011;34317;51.660;5.824;2022-10-28T07:30:51;13.85;;;6.72;;
48526;SDS011;34317;51.660;5.824;2022-10-28T07:33:18;15.57;;;7.15;;
48526;SDS011;34317;51.660;5.824;2022-10-28T07:35:45;14.65;;;6.47;;
48526;SDS011;34317;51.660;5.824;2022-10-28T07:38:12;18.95;;;7.05;;
48526;SDS011;34317;51.660;5.824;2022-10-28T07:40:39;19.80;;;7.22;;
48526;SDS011;34317;51.660;5.824;2022-10-28T07:43:06;13.50;;;6.60;;
48526;SDS011;34317;51.660;5.824;2022-10-28T07:45:34;11.70;;;6.45;;
48526;SDS011;34317;51.660;5.824;2022-10-28T07:48:01;15.85;;;7.13;;
48526;SDS011;34317;51.660;5.824;2022-10-28T07:50:30;17.83;;;7.13;;
48526;SDS011;34317;51.660;5.824;2022-10-28T07:52:57;17.90;;;6.68;;
48526;SDS011;34317;51.660;5.824;2022-10-28T07:55:25;14.30;;;6.65;;
48526;SDS011;34317;51.660;5.824;2022-10-28T07:57:52;17.15;;;6.60;;
48526;SDS011;34317;51.660;5.824;2022-10-28T08:00:20;21.85;;;7.20;;
48526;SDS011;34317;51.660;5.824;2022-10-28T08:02:47;13.63;;;6.35;;
48526;SDS011;34317;51.660;5.824;2022-10-28T08:05:14;11.68;;;5.65;;
48526;SDS011;34317;51.660;5.824;2022-10-28T08:07:41;17.45;;;6.55;;
48526;SDS011;34317;51.660;5.824;2022-10-28T08:10:08;11.73;;;6.15;;
48526;SDS011;34317;51.660;5.824;2022-10-28T08:12:35;14.65;;;6.53;;
48526;SDS011;34317;51.660;5.824;2022-10-28T08:15:02;16.17;;;6.93;;
48526;SDS011;34317;51.660;5.824;2022-10-28T08:17:30;16.55;;;6.53;;
48526;SDS011;34317;51.660;5.824;2022-10-28T08:19:57;13.70;;;6.82;;
48526;SDS011;34317;51.660;5.824;2022-10-28T08:22:24;13.30;;;7.05;;
48526;SDS011;34317;51.660;5.824;2022-10-28T08:24:51;16.85;;;7.10;;
48526;SDS011;34317;51.660;5.824;2022-10-28T08:27:18;13.32;;;6.95;;
48526;SDS011;34317;51.660;5.824;2022-10-28T08:29:45;17.65;;;7.47;;
48526;SDS011;34317;51.660;5.824;2022-10-28T08:32:12;13.27;;;6.93;;
48526;SDS011;34317;51.660;5.824;2022-10-28T08:34:39;12.32;;;6.65;;
48526;SDS011;34317;51.660;5.824;2022-10-28T08:37:09;16.40;;;6.93;;
48526;SDS011;34317;51.660;5.824;2022-10-28T08:39:37;13.75;;;7.65;;
48526;SDS011;34317;51.660;5.824;2022-10-28T08:42:25;15.48;;;7.13;;
48526;SDS011;34317;51.660;5.824;2022-10-28T08:51:13;14.82;;;7.70;;
48526;SDS011;34317;51.660;5.824;2022-10-28T08:53:45;18.73;;;7.35;;
48526;SDS011;34317;51.660;5.824;2022-10-28T08:56:21;16.27;;;5.72;;
48526;SDS011;34317;51.660;5.824;2022-10-28T08:58:57;13.75;;;6.47;;
48526;SDS011;34317;51.660;5.824;2022-10-28T09:01:38;12.60;;;5.97;;
48526;SDS011;34317;51.660;5.824;2022-10-28T09:04:15;15.82;;;5.55;;
48526;SDS011;34317;51.660;5.824;2022-10-28T09:07:06;15.52;;;5.72;;
48526;SDS011;34317;51.660;5.824;2022-10-28T09:09:39;16.95;;;5.50;;
48526;SDS011;34317;51.660;5.824;2022-10-28T09:15:27;10.48;;;4.55;;
48526;SDS011;34317;51.660;5.824;2022-10-28T09:18:11;11.38;;;5.18;;
48526;SDS011;34317;51.660;5.824;2022-10-28T09:20:51;17.23;;;5.43;;
48526;SDS011;34317;51.660;5.824;2022-10-28T09:23:21;17.05;;;4.57;;
48526;SDS011;34317;51.660;5.824;2022-10-28T09:28:33;12.00;;;4.93;;
48526;SDS011;34317;51.660;5.824;2022-10-28T09:31:33;15.05;;;4.72;;
48526;SDS011;34317;51.660;5.824;2022-10-28T09:36:38;12.32;;;4.35;;
48526;SDS011;34317;51.660;5.824;2022-10-28T09:39:19;13.18;;;4.88;;
48526;SDS011;34317;51.660;5.824;2022-10-28T09:41:53;14.87;;;5.23;;
48526;SDS011;34317;51.660;5.824;2022-10-28T09:47:28;10.82;;;4.53;;
48526;SDS011;34317;51.660;5.824;2022-10-28T09:49:59;13.15;;;5.05;;
48526;SDS011;34317;51.660;5.824;2022-10-28T09:52:29;13.52;;;4.97;;
48526;SDS011;34317;51.660;5.824;2022-10-28T09:55:15;19.05;;;5.55;;
48526;SDS011;34317;51.660;5.824;2022-10-28T09:57:46;14.45;;;4.57;;
48526;SDS011;34317;51.660;5.824;2022-10-28T10:00:13;15.52;;;4.75;;
48526;SDS011;34317;51.660;5.824;2022-10-28T10:02:42;10.95;;;4.63;;
48526;SDS011;34317;51.660;5.824;2022-10-28T10:05:14;14.88;;;4.70;;
48526;SDS011;34317;51.660;5.824;2022-10-28T10:07:45;13.38;;;4.43;;
48526;SDS011;34317;51.660;5.824;2022-10-28T10:10:25;16.08;;;5.00;;
48526;SDS011;34317;51.660;5.824;2022-10-28T10:12:57;12.98;;;4.65;;
48526;SDS011;34317;51.660;5.824;2022-10-28T10:15:29;13.35;;;4.75;;
48526;SDS011;34317;51.660;5.824;2022-10-28T10:17:59;13.40;;;4.75;;
48526;SDS011;34317;51.660;5.824;2022-10-28T10:20:28;10.68;;;4.28;;
48526;SDS011;34317;51.660;5.824;2022-10-28T10:23:20;12.38;;;4.53;;
48526;SDS011;34317;51.660;5.824;2022-10-28T10:26:00;14.93;;;4.55;;
48526;SDS011;34317;51.660;5.824;2022-10-28T10:28:36;13.30;;;4.63;;
48526;SDS011;34317;51.660;5.824;2022-10-28T10:31:15;10.68;;;4.80;;
48526;SDS011;34317;51.660;5.824;2022-10-28T10:33:51;11.38;;;4.70;;
48526;SDS011;34317;51.660;5.824;2022-10-28T10:36:20;16.40;;;4.75;;
48526;SDS011;34317;51.660;5.824;2022-10-28T10:38:55;12.30;;;4.68;;
48526;SDS011;34317;51.660;5.824;2022-10-28T10:49:33;11.98;;;4.18;;
48526;SDS011;34317;51.660;5.824;2022-10-28T10:52:20;14.70;;;4.53;;
48526;SDS011;34317;51.660;5.824;2022-10-28T10:54:56;15.00;;;4.32;;
48526;SDS011;34317;51.660;5.824;2022-10-28T10:57:26;12.82;;;3.95;;
48526;SDS011;34317;51.660;5.824;2022-10-28T10:59:54;15.27;;;4.28;;
48526;SDS011;34317;51.660;5.824;2022-10-28T11:02:27;12.07;;;4.18;;
48526;SDS011;34317;51.660;5.824;2022-10-28T11:04:59;11.27;;;4.40;;
48526;SDS011;34317;51.660;5.824;2022-10-28T11:07:28;13.60;;;4.55;;
48526;SDS011;34317;51.660;5.824;2022-10-28T11:09:58;11.80;;;4.10;;
48526;SDS011;34317;51.660;5.824;2022-10-28T11:14:56;11.63;;;4.20;;
48526;SDS011;34317;51.660;5.824;2022-10-28T11:17:31;13.02;;;3.95;;
48526;SDS011;34317;51.660;5.824;2022-10-28T11:20:17;12.93;;;4.20;;
48526;SDS011;34317;51.660;5.824;2022-10-28T11:25:45;10.32;;;3.97;;
48526;SDS011;34317;51.660;5.824;2022-10-28T11:36:14;11.30;;;3.65;;
48526;SDS011;34317;51.660;5.824;2022-10-28T11:44:17;15.10;;;3.83;;
48526;SDS011;34317;51.660;5.824;2022-10-28T11:55:47;12.40;;;3.63;;
48526;SDS011;34317;51.660;5.824;2022-10-28T11:58:30;12.90;;;4.55;;
48526;SDS011;34317;51.660;5.824;2022-10-28T12:06:33;12.88;;;3.85;;
48526;SDS011;34317;51.660;5.824;2022-10-28T12:09:33;11.75;;;4.10;;
48526;SDS011;34317;51.660;5.824;2022-10-28T12:12:12;12.70;;;4.20;;
48526;SDS011;34317;51.660;5.824;2022-10-28T12:17:37;13.00;;;3.83;;
48526;SDS011;34317;51.660;5.824;2022-10-28T12:20:16;13.10;;;3.78;;
48526;SDS011;34317;51.660;5.824;2022-10-28T12:22:52;10.82;;;3.33;;
48526;SDS011;34317;51.660;5.824;2022-10-28T12:25:24;12.80;;;3.97;;
48526;SDS011;34317;51.660;5.824;2022-10-28T12:27:56;14.10;;;3.88;;
48526;SDS011;34317;51.660;5.824;2022-10-28T12:30:31;11.13;;;3.70;;
48526;SDS011;34317;51.660;5.824;2022-10-28T12:38:57;14.35;;;3.60;;
48526;SDS011;34317;51.660;5.824;2022-10-28T12:41:51;11.18;;;3.63;;
48526;SDS011;34317;51.660;5.824;2022-10-28T12:44:22;15.57;;;3.95;;
48526;SDS011;34317;51.660;5.824;2022-10-28T12:52:13;16.83;;;4.20;;
48526;SDS011;34317;51.660;5.824;2022-10-28T12:54:54;11.43;;;3.88;;
48526;SDS011;34317;51.660;5.824;2022-10-28T12:57:25;13.13;;;4.18;;
48526;SDS011;34317;51.660;5.824;2022-10-28T13:02:49;11.68;;;4.10;;
48526;SDS011;34317;51.660;5.824;2022-10-28T13:05:26;11.57;;;3.50;;
48526;SDS011;34317;51.660;5.824;2022-10-28T13:08:07;9.93;;;3.88;;
48526;SDS011;34317;51.660;5.824;2022-10-28T13:10:56;12.50;;;3.88;;
48526;SDS011;34317;51.660;5.824;2022-10-28T13:19:50;14.88;;;4.00;;
48526;SDS011;34317;51.660;5.824;2022-10-28T13:27:59;11.45;;;3.92;;
48526;SDS011;34317;51.660;5.824;2022-10-28T13:30:27;15.45;;;4.40;;
48526;SDS011;34317;51.660;5.824;2022-10-28T13:33:02;11.30;;;3.70;;
48526;SDS011;34317;51.660;5.824;2022-10-28T13:37:59;17.20;;;4.25;;
48526;SDS011;34317;51.660;5.824;2022-10-28T13:42:58;14.15;;;3.92;;
48526;SDS011;34317;51.660;5.824;2022-10-28T13:58:54;12.90;;;4.20;;
48526;SDS011;34317;51.660;5.824;2022-10-28T14:04:36;16.02;;;4.03;;
48526;SDS011;34317;51.660;5.824;2022-10-28T14:07:15;15.70;;;4.80;;
48526;SDS011;34317;51.660;5.824;2022-10-28T14:09:50;11.73;;;3.92;;
48526;SDS011;34317;51.660;5.824;2022-10-28T14:15:01;17.42;;;4.38;;
48526;SDS011;34317;51.660;5.824;2022-10-28T14:17:36;13.50;;;4.18;;
48526;SDS011;34317;51.660;5.824;2022-10-28T14:20:04;11.98;;;4.00;;
48526;SDS011;34317;51.660;5.824;2022-10-28T14:22:45;16.40;;;4.30;;
48526;SDS011;34317;51.660;5.824;2022-10-28T14:41:53;11.13;;;3.75;;
48526;SDS011;34317;51.660;5.824;2022-10-28T14:44:31;12.32;;;4.13;;
48526;SDS011;34317;51.660;5.824;2022-10-28T14:47:14;13.15;;;4.25;;
48526;SDS011;34317;51.660;5.824;2022-10-28T14:49:56;11.43;;;4.05;;
48526;SDS011;34317;51.660;5.824;2022-10-28T14:52:24;14.93;;;4.65;;
48526;SDS011;34317;51.660;5.824;2022-10-28T14:54:56;20.15;;;5.00;;
48526;SDS011;34317;51.660;5.824;2022-10-28T14:57:26;14.48;;;4.65;;
48526;SDS011;34317;51.660;5.824;2022-10-28T15:00:03;12.88;;;4.30;;
48526;SDS011;34317;51.660;5.824;2022-10-28T15:02:33;13.95;;;4.53;;
48526;SDS011;34317;51.660;5.824;2022-10-28T15:05:11;13.23;;;4.78;;
48526;SDS011;34317;51.660;5.824;2022-10-28T15:07:41;13.40;;;4.90;;
48526;SDS011;34317;51.660;5.824;2022-10-28T15:10:16;12.95;;;3.95;;
48526;SDS011;34317;51.660;5.824;2022-10-28T15:12:45;15.38;;;4.07;;
48526;SDS011;34317;51.660;5.824;2022-10-28T15:15:21;10.13;;;4.07;;
48526;SDS011;34317;51.660;5.824;2022-10-28T15:17:50;14.23;;;4.00;;
48526;SDS011;34317;51.660;5.824;2022-10-28T15:20:21;12.05;;;4.00;;
48526;SDS011;34317;51.660;5.824;2022-10-28T15:22:51;7.95;;;3.78;;
48526;SDS011;34317;51.660;5.824;2022-10-28T15:25:20;11.43;;;4.07;;
48526;SDS011;34317;51.660;5.824;2022-10-28T15:27:51;13.63;;;3.90;;
48526;SDS011;34317;51.660;5.824;2022-10-28T15:30:23;11.50;;;3.92;;
48526;SDS011;34317;51.660;5.824;2022-10-28T15:32:52;11.75;;;4.05;;
48526;SDS011;34317;51.660;5.824;2022-10-28T15:35:23;20.52;;;4.70;;
48526;SDS011;34317;51.660;5.824;2022-10-28T15:37:53;16.05;;;4.50;;
48526;SDS011;34317;51.660;5.824;2022-10-28T15:43:02;13.70;;;4.18;;
48526;SDS011;34317;51.660;5.824;2022-10-28T15:45:32;16.45;;;4.38;;
48526;SDS011;34317;51.660;5.824;2022-10-28T15:48:12;12.43;;;4.30;;
48526;SDS011;34317;51.660;5.824;2022-10-28T15:50:44;11.80;;;4.28;;
48526;SDS011;34317;51.660;5.824;2022-10-28T15:53:31;11.82;;;4.75;;
48526;SDS011;34317;51.660;5.824;2022-10-28T15:56:08;11.88;;;4.70;;
48526;SDS011;34317;51.660;5.824;2022-10-28T15:58:44;12.70;;;4.72;;
48526;SDS011;34317;51.660;5.824;2022-10-28T16:01:37;13.63;;;4.80;;
48526;SDS011;34317;51.660;5.824;2022-10-28T16:04:39;11.63;;;4.40;;
48526;SDS011;34317;51.660;5.824;2022-10-28T16:07:07;18.83;;;5.35;;
48526;SDS011;34317;51.660;5.824;2022-10-28T16:09:42;16.60;;;4.78;;
48526;SDS011;34317;51.660;5.824;2022-10-28T16:12:19;9.25;;;4.47;;
48526;SDS011;34317;51.660;5.824;2022-10-28T16:14:56;14.05;;;5.50;;
48526;SDS011;34317;51.660;5.824;2022-10-28T16:17:27;15.23;;;6.40;;
48526;SDS011;34317;51.660;5.824;2022-10-28T16:20:00;17.27;;;5.75;;
48526;SDS011;34317;51.660;5.824;2022-10-28T16:22:30;13.43;;;5.95;;
48526;SDS011;34317;51.660;5.824;2022-10-28T16:25:04;17.00;;;5.95;;
48526;SDS011;34317;51.660;5.824;2022-10-28T16:27:37;11.63;;;5.30;;
48526;SDS011;34317;51.660;5.824;2022-10-28T16:30:04;14.38;;;5.63;;
48526;SDS011;34317;51.660;5.824;2022-10-28T16:32:36;13.32;;;5.60;;
48526;SDS011;34317;51.660;5.824;2022-10-28T16:35:15;17.13;;;6.30;;
48526;SDS011;34317;51.660;5.824;2022-10-28T16:37:46;14.73;;;6.68;;
48526;SDS011;34317;51.660;5.824;2022-10-28T16:40:20;18.00;;;7.30;;
48526;SDS011;34317;51.660;5.824;2022-10-28T16:43:14;18.92;;;6.85;;
48526;SDS011;34317;51.660;5.824;2022-10-28T16:45:43;16.67;;;6.97;;
48526;SDS011;34317;51.660;5.824;2022-10-28T16:48:13;15.63;;;6.18;;
48526;SDS011;34317;51.660;5.824;2022-10-28T16:51:03;12.27;;;6.53;;
48526;SDS011;34317;51.660;5.824;2022-10-28T16:53:32;13.57;;;5.88;;
48526;SDS011;34317;51.660;5.824;2022-10-28T16:55:59;14.98;;;5.50;;
48526;SDS011;34317;51.660;5.824;2022-10-28T16:58:27;16.45;;;5.50;;
48526;SDS011;34317;51.660;5.824;2022-10-28T17:00:55;12.95;;;5.50;;
48526;SDS011;34317;51.660;5.824;2022-10-28T17:03:22;13.73;;;5.90;;
48526;SDS011;34317;51.660;5.824;2022-10-28T17:05:49;14.68;;;5.45;;
48526;SDS011;34317;51.660;5.824;2022-10-28T17:08:16;15.00;;;5.15;;
48526;SDS011;34317;51.660;5.824;2022-10-28T17:11:03;12.27;;;5.50;;
48526;SDS011;34317;51.660;5.824;2022-10-28T17:13:32;9.80;;;5.15;;
48526;SDS011;34317;51.660;5.824;2022-10-28T17:15:59;13.48;;;5.38;;
48526;SDS011;34317;51.660;5.824;2022-10-28T17:18:26;13.82;;;5.20;;
48526;SDS011;34317;51.660;5.824;2022-10-28T17:20:59;15.30;;;5.55;;
48526;SDS011;34317;51.660;5.824;2022-10-28T17:23:28;10.98;;;4.78;;
48526;SDS011;34317;51.660;5.824;2022-10-28T17:25:56;13.65;;;5.80;;
48526;SDS011;34317;51.660;5.824;2022-10-28T17:28:23;13.77;;;5.53;;
48526;SDS011;34317;51.660;5.824;2022-10-28T17:30:50;9.40;;;5.45;;
48526;SDS011;34317;51.660;5.824;2022-10-28T17:33:17;16.48;;;5.30;;
48526;SDS011;34317;51.660;5.824;2022-10-28T17:35:44;16.33;;;5.05;;
48526;SDS011;34317;51.660;5.824;2022-10-28T17:38:11;9.05;;;5.05;;
48526;SDS011;34317;51.660;5.824;2022-10-28T17:40:39;11.10;;;5.05;;